Time;durP1;ratioP1;P1;durP2;ratioP2;P2;SDS_P1;SDS_P2;PMS_P1;PMS_P2;Temp;Humidity;BMP_temperature;BMP_pressure;BME280_temperature;BME280_humidity;BME280_pressure;Samples;Min_cycle;Max_cycle;Signal;HPM_P1;HPM_P2
2023/11/13 00:01:49;;;;;;;7.83;7.07;;;6.60;1.00;;;;;;5036366;28;20497;-40
2023/11/13 00:04:15;;;;;;;16.80;12.43;;;6.60;1.00;;;;;;5035420;28;20746;-41
2023/11/13 00:06:41;;;;;;;14.07;10.93;;;6.70;1.00;;;;;;5035053;28;20421;-38
2023/11/13 00:09:06;;;;;;;9.77;8.73;;;6.70;1.00;;;;;;5035026;28;20240;-41
2023/11/13 00:11:33;;;;;;;8.73;7.83;;;6.70;1.00;;;;;;5033596;28;20192;-39
2023/11/13 00:13:59;;;;;;;7.60;6.80;;;6.70;1.00;;;;;;5033514;28;20596;-40
2023/11/13 00:16:25;;;;;;;7.70;6.77;;;6.80;1.00;;;;;;5034037;28;20443;-40
2023/11/13 00:18:51;;;;;;;7.20;6.40;;;6.80;1.00;;;;;;5033942;28;20448;-40
2023/11/13 00:21:17;;;;;;;6.57;5.87;;;6.80;1.00;;;;;;5033554;28;20699;-39
2023/11/13 00:23:45;;;;;;;7.90;6.20;;;6.90;1.00;;;;;;5033482;28;20206;-39
2023/11/13 00:26:11;;;;;;;6.87;5.17;;;7.00;1.00;;;;;;5033802;28;20421;-38
2023/11/13 00:28:38;;;;;;;7.93;6.50;;;7.10;1.00;;;;;;5033396;28;20435;-40
2023/11/13 00:31:04;;;;;;;5.93;5.30;;;7.10;1.00;;;;;;5034053;28;20426;-42
2023/11/13 00:33:30;;;;;;;6.73;5.03;;;7.10;1.00;;;;;;5035053;28;20791;-40
2023/11/13 00:35:55;;;;;;;8.77;5.90;;;7.10;1.00;;;;;;5035537;28;20178;-43
2023/11/13 00:38:21;;;;;;;6.83;5.07;;;7.20;1.00;;;;;;5034326;28;20436;-39
2023/11/13 00:40:47;;;;;;;6.33;5.37;;;7.20;1.00;;;;;;5033509;28;20182;-38
2023/11/13 00:43:14;;;;;;;9.93;6.20;;;7.30;1.00;;;;;;5033492;28;20185;-41
2023/11/13 00:45:40;;;;;;;7.10;4.60;;;7.30;1.00;;;;;;5032834;28;20496;-40
2023/11/13 00:48:06;;;;;;;9.87;5.60;;;7.30;1.00;;;;;;5033268;28;20500;-40
2023/11/13 00:50:31;;;;;;;7.30;5.30;;;7.40;1.00;;;;;;5035196;28;20784;-39
2023/11/13 00:52:58;;;;;;;11.00;6.00;;;7.40;1.00;;;;;;5035981;28;20201;-40
2023/11/13 00:55:24;;;;;;;8.90;5.40;;;7.40;1.00;;;;;;5035290;28;20187;-40
2023/11/13 00:57:50;;;;;;;7.30;5.97;;;7.50;1.00;;;;;;5017785;28;20737;-39
2023/11/13 01:00:16;;;;;;;7.20;5.00;;;7.50;1.00;;;;;;5036037;28;20425;-41
2023/11/13 01:02:41;;;;;;;6.63;5.83;;;7.50;1.00;;;;;;5036729;28;20433;-41
2023/11/13 01:05:08;;;;;;;5.93;5.10;;;7.50;1.00;;;;;;5039810;28;20479;-40
2023/11/13 01:07:33;;;;;;;7.43;6.73;;;7.50;1.00;;;;;;5040158;28;20464;-41
2023/11/13 01:09:59;;;;;;;8.67;5.40;;;7.50;1.00;;;;;;5039757;28;20429;-41
2023/11/13 01:12:25;;;;;;;6.50;4.80;;;7.50;1.00;;;;;;5039631;28;20500;-38
2023/11/13 01:14:51;;;;;;;9.60;6.50;;;7.60;1.00;;;;;;5040354;28;20183;-39
2023/11/13 01:17:17;;;;;;;8.27;5.33;;;7.60;1.00;;;;;;5039711;28;20268;-39
2023/11/13 01:19:43;;;;;;;5.30;4.80;;;7.60;1.00;;;;;;5039728;28;20436;-37
2023/11/13 01:22:09;;;;;;;5.97;4.73;;;7.60;1.00;;;;;;5039898;28;20187;-40
2023/11/13 01:24:34;;;;;;;8.57;5.93;;;7.60;1.00;;;;;;5039404;28;20452;-39
2023/11/13 01:27:00;;;;;;;9.67;5.23;;;7.60;1.00;;;;;;5039264;28;20260;-39
2023/11/13 01:29:26;;;;;;;8.50;4.80;;;7.70;1.00;;;;;;5038723;28;20209;-39
2023/11/13 01:31:52;;;;;;;7.00;5.07;;;7.70;1.00;;;;;;5038323;28;20496;-41
2023/11/13 01:34:17;;;;;;;9.73;5.20;;;7.70;1.00;;;;;;5039810;28;20331;-39
2023/11/13 01:36:46;;;;;;;9.30;5.33;;;7.70;1.00;;;;;;5039671;28;20183;-41
2023/11/13 01:39:12;;;;;;;7.50;5.30;;;7.80;1.00;;;;;;5039869;28;20182;-41
2023/11/13 01:41:39;;;;;;;5.90;4.67;;;7.80;1.00;;;;;;5038596;28;20498;-39
2023/11/13 01:44:05;;;;;;;9.53;4.40;;;7.80;1.00;;;;;;5021865;28;20519;-40
2023/11/13 01:46:32;;;;;;;6.27;4.57;;;7.80;1.00;;;;;;5021563;28;20432;-38
2023/11/13 01:48:59;;;;;;;6.53;4.90;;;7.90;1.00;;;;;;5039061;28;20425;-41
2023/11/13 01:51:25;;;;;;;7.50;4.77;;;7.90;1.00;;;;;;5039249;28;20401;-41
2023/11/13 01:53:57;;;;;;;6.73;4.57;;;7.90;1.00;;;;;;5039171;28;20465;-42
2023/11/13 01:56:25;;;;;;;6.50;4.30;;;7.90;1.00;;;;;;5038499;28;20427;-41
2023/11/13 01:58:51;;;;;;;5.30;4.23;;;7.90;1.00;;;;;;5038783;28;20437;-38
2023/11/13 02:01:17;;;;;;;6.10;4.00;;;8.00;1.00;;;;;;5021091;28;20444;-40
2023/11/13 02:03:43;;;;;;;6.87;3.90;;;8.00;1.00;;;;;;5021403;28;20441;-40
2023/11/13 02:06:09;;;;;;;7.77;4.20;;;8.00;1.00;;;;;;5038743;28;20846;-39
2023/11/13 02:08:34;;;;;;;6.73;4.20;;;8.10;1.00;;;;;;5039015;28;20197;-39
2023/11/13 02:11:01;;;;;;;4.53;3.80;;;8.10;1.00;;;;;;5038676;28;20186;-39
2023/11/13 02:13:27;;;;;;;5.77;3.60;;;8.10;1.00;;;;;;5020890;28;20595;-40
2023/11/13 02:15:53;;;;;;;4.60;3.17;;;8.20;1.00;;;;;;5037453;28;20800;-43
2023/11/13 02:18:19;;;;;;;3.80;2.87;;;8.20;1.00;;;;;;5038553;28;20500;-42
2023/11/13 02:20:45;;;;;;;3.70;2.90;;;8.20;1.00;;;;;;5038280;28;20639;-40
2023/11/13 02:23:17;;;;;;;5.37;2.70;;;8.30;1.00;;;;;;5038059;28;20433;-38
2023/11/13 02:25:50;;;;;;;6.40;3.33;;;8.30;1.00;;;;;;5037786;28;20214;-39
2023/11/13 02:28:16;;;;;;;5.80;2.60;;;8.40;1.00;;;;;;5037956;28;20425;-38
2023/11/13 02:30:42;;;;;;;4.67;2.37;;;8.50;1.00;;;;;;5020591;28;20649;-38
2023/11/13 02:33:08;;;;;;;4.33;2.40;;;8.50;1.00;;;;;;5037630;28;20228;-40
2023/11/13 02:35:33;;;;;;;4.10;2.30;;;8.50;1.00;;;;;;5037263;28;20506;-40
2023/11/13 02:38:00;;;;;;;5.30;2.67;;;8.60;1.00;;;;;;5036978;28;20267;-41
2023/11/13 02:40:26;;;;;;;3.87;2.63;;;8.60;1.00;;;;;;5037969;28;20222;-41
2023/11/13 02:42:52;;;;;;;5.27;2.93;;;8.60;1.00;;;;;;5037695;28;20436;-40
2023/11/13 02:45:17;;;;;;;4.10;2.57;;;8.60;1.00;;;;;;5038019;28;20464;-41
2023/11/13 02:47:43;;;;;;;4.17;2.53;;;8.70;1.00;;;;;;5037937;28;20236;-41
2023/11/13 02:50:11;;;;;;;2.93;2.63;;;8.70;1.00;;;;;;5037785;28;20448;-41
2023/11/13 02:52:36;;;;;;;4.53;2.63;;;8.70;1.00;;;;;;5037820;28;20429;-39
2023/11/13 02:55:02;;;;;;;3.07;2.10;;;8.70;1.00;;;;;;5037639;28;20868;-41
2023/11/13 02:57:28;;;;;;;3.60;2.30;;;8.70;1.00;;;;;;5037568;28;20187;-42
2023/11/13 02:59:54;;;;;;;5.90;3.20;;;8.70;1.00;;;;;;5037496;28;20663;-39
2023/11/13 03:02:19;;;;;;;4.93;2.80;;;8.80;1.00;;;;;;5037678;28;20599;-42
2023/11/13 03:04:45;;;;;;;5.00;2.67;;;8.80;1.00;;;;;;5036259;28;20218;-40
2023/11/13 03:07:20;;;;;;;3.20;2.50;;;8.90;1.00;;;;;;5037267;28;20607;-39
2023/11/13 03:09:46;;;;;;;4.90;2.60;;;8.90;1.00;;;;;;5037710;28;20534;-41
2023/11/13 03:12:11;;;;;;;3.40;2.13;;;8.90;1.00;;;;;;5036704;28;20493;-38
2023/11/13 03:14:37;;;;;;;3.87;2.03;;;9.00;1.00;;;;;;5036099;28;20585;-44
2023/11/13 03:17:03;;;;;;;2.03;1.63;;;9.00;1.00;;;;;;5037474;28;20549;-40
2023/11/13 03:19:28;;;;;;;3.60;2.40;;;9.00;1.00;;;;;;5037170;28;20575;-40
2023/11/13 03:21:54;;;;;;;7.40;1.93;;;9.10;1.00;;;;;;5036007;28;20214;-40
2023/11/13 03:24:19;;;;;;;2.33;2.00;;;9.20;1.00;;;;;;5035453;28;20657;-38
2023/11/13 03:26:45;;;;;;;3.50;2.40;;;9.20;1.00;;;;;;5034256;28;20193;-39
2023/11/13 03:29:11;;;;;;;4.20;2.10;;;9.20;1.00;;;;;;5035964;28;20179;-39
2023/11/13 03:31:37;;;;;;;3.53;2.20;;;9.30;1.00;;;;;;5036191;28;20226;-40
2023/11/13 03:34:02;;;;;;;3.90;2.50;;;9.30;1.00;;;;;;5036372;28;20198;-38
2023/11/13 03:36:28;;;;;;;4.00;2.00;;;9.30;1.00;;;;;;5036202;28;20262;-42
2023/11/13 03:38:54;;;;;;;3.43;2.23;;;9.40;1.00;;;;;;5036341;28;20182;-38
2023/11/13 03:41:19;;;;;;;2.20;1.93;;;9.40;1.00;;;;;;5036452;28;20197;-41
2023/11/13 03:43:45;;;;;;;4.13;2.17;;;9.50;1.00;;;;;;5036288;28;20193;-40
2023/11/13 03:46:11;;;;;;;5.27;2.00;;;9.50;1.00;;;;;;5035353;28;20586;-39
2023/11/13 03:48:37;;;;;;;3.30;2.20;;;9.50;1.00;;;;;;5034570;28;20422;-41
2023/11/13 03:51:02;;;;;;;2.40;1.77;;;9.50;1.00;;;;;;5035729;28;20533;-40
2023/11/13 03:53:28;;;;;;;3.10;1.90;;;9.50;1.00;;;;;;5034197;28;20302;-40
2023/11/13 03:55:54;;;;;;;2.83;1.77;;;9.50;1.00;;;;;;5034962;28;20824;-39
2023/11/13 03:58:19;;;;;;;3.97;1.83;;;9.60;1.00;;;;;;5034465;28;20226;-39
2023/11/13 04:00:45;;;;;;;2.70;1.37;;;9.60;1.00;;;;;;5036017;28;20516;-41
2023/11/13 04:03:10;;;;;;;2.30;1.20;;;9.50;1.00;;;;;;5033788;28;20190;-42
2023/11/13 04:05:36;;;;;;;3.43;1.73;;;9.60;1.00;;;;;;5033092;28;20232;-42
2023/11/13 04:08:02;;;;;;;3.60;1.33;;;9.60;1.00;;;;;;5015051;28;20561;-40
2023/11/13 04:10:28;;;;;;;2.60;1.47;;;9.60;1.00;;;;;;5034288;28;20252;-40
2023/11/13 04:12:54;;;;;;;3.60;1.50;;;9.70;1.00;;;;;;5033088;28;20294;-42
2023/11/13 04:15:19;;;;;;;5.03;1.47;;;9.70;1.00;;;;;;5034898;28;20428;-40
2023/11/13 04:17:45;;;;;;;2.00;1.50;;;9.70;1.00;;;;;;5036218;28;20496;-41
2023/11/13 04:20:14;;;;;;;3.37;1.97;;;9.70;1.00;;;;;;5035883;28;20201;-39
2023/11/13 04:22:41;;;;;;;6.30;1.97;;;9.80;1.00;;;;;;5035790;28;20293;-40
2023/11/13 04:25:07;;;;;;;2.77;1.90;;;9.70;1.00;;;;;;5033793;28;20476;-41
2023/11/13 04:27:33;;;;;;;3.63;2.03;;;9.70;1.00;;;;;;5033893;28;20547;-42
2023/11/13 04:29:59;;;;;;;4.53;1.80;;;9.70;1.00;;;;;;5033503;28;20500;-40
2023/11/13 04:32:25;;;;;;;5.73;3.40;;;9.70;1.00;;;;;;5034422;28;20240;-41
2023/11/13 04:34:51;;;;;;;3.27;2.00;;;9.70;1.00;;;;;;5033920;28;20437;-42
2023/11/13 04:37:17;;;;;;;5.57;5.00;;;9.70;1.00;;;;;;5033202;28;20548;-40
2023/11/13 04:39:43;;;;;;;9.30;8.40;;;9.70;1.00;;;;;;5039480;28;20433;-39
2023/11/13 04:42:08;;;;;;;8.97;3.20;;;9.70;1.00;;;;;;5038321;28;20704;-40
2023/11/13 04:44:34;;;;;;;3.23;1.93;;;9.70;1.00;;;;;;5036342;28;20342;-42
2023/11/13 04:47:02;;;;;;;6.73;2.53;;;9.70;1.00;;;;;;5036429;28;20190;-42
2023/11/13 04:49:29;;;;;;;3.10;2.03;;;9.70;1.00;;;;;;5037735;28;20233;-39
2023/11/13 04:51:55;;;;;;;4.80;2.13;;;9.60;1.00;;;;;;5036708;28;20819;-40
2023/11/13 04:54:20;;;;;;;3.50;1.80;;;9.70;1.00;;;;;;5036911;28;20586;-45
2023/11/13 04:56:46;;;;;;;4.60;2.40;;;9.70;1.00;;;;;;5038050;28;20197;-40
2023/11/13 04:59:12;;;;;;;4.43;2.50;;;9.70;1.00;;;;;;5037970;28;20186;-40
2023/11/13 05:01:39;;;;;;;6.10;2.27;;;9.70;1.00;;;;;;5035508;28;20548;-39
2023/11/13 05:04:08;;;;;;;8.33;2.93;;;9.70;1.00;;;;;;5035746;28;20456;-42
2023/11/13 05:06:35;;;;;;;7.77;2.50;;;9.70;1.00;;;;;;5017037;28;20803;-41
2023/11/13 05:09:08;;;;;;;8.10;2.67;;;9.70;1.00;;;;;;5034089;28;20763;-41
2023/11/13 05:11:33;;;;;;;8.50;3.13;;;9.70;1.00;;;;;;5033651;28;20432;-39
2023/11/13 05:13:59;;;;;;;9.37;3.17;;;9.90;1.00;;;;;;5035419;28;20436;-40
2023/11/13 05:16:26;;;;;;;7.93;2.93;;;9.90;1.00;;;;;;5034837;28;20485;-38
2023/11/13 05:18:52;;;;;;;12.97;4.20;;;9.90;1.00;;;;;;5034986;28;20222;-41
2023/11/13 05:21:19;;;;;;;9.63;3.10;;;9.90;1.00;;;;;;5037378;28;20421;-41
2023/11/13 05:23:47;;;;;;;13.00;3.17;;;9.90;1.00;;;;;;5036460;28;20452;-39
2023/11/13 05:26:13;;;;;;;13.67;3.20;;;9.90;1.00;;;;;;5038505;28;20823;-39
2023/11/13 05:28:39;;;;;;;11.80;4.70;;;10.00;1.00;;;;;;5037316;28;20451;-41
2023/11/13 05:31:04;;;;;;;10.63;3.20;;;10.00;1.00;;;;;;5019794;28;20843;-39
2023/11/13 05:33:30;;;;;;;9.00;3.43;;;10.00;1.00;;;;;;5021257;28;20504;-39
2023/11/13 05:35:56;;;;;;;21.93;3.83;;;10.10;1.00;;;;;;5038345;28;20594;-39
2023/11/13 05:38:22;;;;;;;11.30;3.40;;;10.10;1.00;;;;;;5038221;28;20218;-40
2023/11/13 05:40:48;;;;;;;10.03;3.93;;;10.10;1.00;;;;;;5019743;28;20434;-40
2023/11/13 05:43:14;;;;;;;12.60;3.20;;;10.10;1.00;;;;;;5037434;28;20221;-39
2023/11/13 05:45:40;;;;;;;11.80;3.07;;;10.10;1.00;;;;;;5035852;28;20373;-42
2023/11/13 05:48:06;;;;;;;12.30;3.80;;;10.00;1.00;;;;;;5036594;28;20491;-38
2023/11/13 05:50:32;;;;;;;12.03;4.40;;;10.00;1.00;;;;;;5037179;28;20429;-40
2023/11/13 05:52:58;;;;;;;14.50;3.43;;;10.10;1.00;;;;;;5019738;28;20425;-39
2023/11/13 05:55:24;;;;;;;10.83;3.30;;;10.10;1.00;;;;;;5017802;28;20508;-41
2023/11/13 05:57:52;;;;;;;16.97;4.50;;;10.10;1.00;;;;;;5015927;28;20198;-41
2023/11/13 06:00:18;;;;;;;13.00;3.50;;;10.10;1.00;;;;;;5012861;28;20537;-39
2023/11/13 06:02:46;;;;;;;13.63;4.00;;;10.00;1.00;;;;;;5012342;28;20657;-40
2023/11/13 06:05:13;;;;;;;11.33;3.30;;;10.00;1.00;;;;;;5010803;28;20807;-39
2023/11/13 06:07:39;;;;;;;13.60;3.40;;;10.10;1.00;;;;;;5017240;28;20473;-40
2023/11/13 06:10:08;;;;;;;11.80;3.30;;;10.10;1.00;;;;;;5012595;28;20537;-41
2023/11/13 06:12:34;;;;;;;12.23;3.90;;;10.10;1.00;;;;;;5011925;28;20253;-39
2023/11/13 06:15:00;;;;;;;9.93;3.97;;;10.20;1.00;;;;;;5010784;28;20422;-38
2023/11/13 06:17:26;;;;;;;11.73;4.00;;;10.30;1.00;;;;;;5011970;28;20445;-40
2023/11/13 06:19:53;;;;;;;9.73;3.47;;;10.20;1.00;;;;;;5012479;28;20430;-41
2023/11/13 06:22:20;;;;;;;13.70;3.90;;;10.20;1.00;;;;;;5011590;28;20342;-39
2023/11/13 06:24:46;;;;;;;12.27;3.50;;;10.30;99.90;;;;;;5012926;28;20492;-38
2023/11/13 06:27:12;;;;;;;12.17;4.10;;;10.30;99.90;;;;;;5013531;28;20410;-40
2023/11/13 06:29:37;;;;;;;10.30;3.43;;;10.40;99.90;;;;;;5014136;28;20422;-39
2023/11/13 06:32:03;;;;;;;10.87;3.63;;;10.40;99.90;;;;;;5001974;28;20234;-38
2023/11/13 06:34:29;;;;;;;11.40;3.67;;;10.50;99.90;;;;;;5013625;28;20508;-42
2023/11/13 06:36:55;;;;;;;11.73;3.70;;;10.40;99.90;;;;;;5014764;28;21385;-39
2023/11/13 06:39:20;;;;;;;15.30;3.90;;;10.40;1.00;;;;;;5012547;28;20182;-39
2023/11/13 06:41:48;;;;;;;11.00;4.30;;;10.40;1.00;;;;;;5010714;28;20289;-38
2023/11/13 06:44:14;;;;;;;10.27;2.97;;;10.40;1.00;;;;;;5011972;28;20214;-39
2023/11/13 06:46:40;;;;;;;6.13;2.90;;;10.30;1.00;;;;;;5013043;28;20697;-39
2023/11/13 06:49:07;;;;;;;11.63;3.53;;;10.30;1.00;;;;;;5013274;28;20573;-39
2023/11/13 06:51:33;;;;;;;14.33;3.47;;;10.40;1.00;;;;;;5013451;28;20780;-39
2023/11/13 06:53:59;;;;;;;10.87;3.50;;;10.30;1.00;;;;;;5011182;28;20426;-41
2023/11/13 06:56:25;;;;;;;10.00;3.10;;;10.40;1.00;;;;;;5011683;28;20694;-39
2023/11/13 06:58:51;;;;;;;13.67;3.90;;;10.40;1.00;;;;;;5011572;28;20792;-38
2023/11/13 07:01:18;;;;;;;8.13;2.87;;;10.30;1.00;;;;;;5011244;28;20199;-40
2023/11/13 07:03:44;;;;;;;7.37;2.53;;;10.30;99.90;;;;;;5013131;28;20730;-40
2023/11/13 07:06:13;;;;;;;10.33;2.87;;;10.20;99.90;;;;;;5012984;28;20414;-39
2023/11/13 07:08:39;;;;;;;23.00;11.00;;;10.30;99.90;;;;;;5014341;28;20215;-40
2023/11/13 07:11:05;;;;;;;11.77;3.00;;;10.20;99.90;;;;;;5015883;28;20426;-39
2023/11/13 07:13:32;;;;;;;16.27;7.60;;;10.20;99.90;;;;;;5016119;28;20441;-42
2023/11/13 07:15:58;;;;;;;12.93;7.00;;;10.10;99.90;;;;;;5015993;28;20222;-41
2023/11/13 07:18:23;;;;;;;97.37;39.73;;;10.10;99.90;;;;;;5015922;28;20740;-41
2023/11/13 07:20:52;;;;;;;33.30;16.40;;;10.10;99.90;;;;;;5014592;28;20516;-38
2023/11/13 07:23:18;;;;;;;9.53;4.00;;;10.10;99.90;;;;;;5016488;28;20195;-39
2023/11/13 07:25:47;;;;;;;13.83;7.00;;;10.10;99.90;;;;;;5014579;28;20559;-38
2023/11/13 07:28:16;;;;;;;12.87;7.40;;;10.00;99.90;;;;;;5015265;28;20408;-36
2023/11/13 07:30:42;;;;;;;11.80;4.97;;;10.00;99.90;;;;;;5015278;28;20444;-40
2023/11/13 07:33:08;;;;;;;20.80;10.40;;;10.00;99.90;;;;;;5015096;28;20552;-39
2023/11/13 07:35:36;;;;;;;10.00;5.70;;;10.00;99.90;;;;;;5016199;28;20546;-39
2023/11/13 07:38:02;;;;;;;7.90;4.00;;;10.00;99.90;;;;;;5016633;28;20195;-40
2023/11/13 07:40:27;;;;;;;6.83;3.50;;;9.90;1.00;;;;;;5015542;28;20532;-41
2023/11/13 07:42:54;;;;;;;6.93;2.57;;;9.90;1.00;;;;;;5015866;28;20477;-40
2023/11/13 07:45:20;;;;;;;6.50;2.63;;;9.90;1.00;;;;;;5015941;28;20359;-37
2023/11/13 07:47:45;;;;;;;6.10;2.40;;;9.90;1.00;;;;;;5015573;28;20491;-40
2023/11/13 07:50:11;;;;;;;6.20;3.00;;;9.90;1.00;;;;;;5015434;28;20261;-40
2023/11/13 07:52:42;;;;;;;5.83;2.60;;;9.90;1.00;;;;;;5015019;28;20302;-41
2023/11/13 07:55:09;;;;;;;7.40;2.53;;;9.90;99.90;;;;;;5014369;28;20486;-41
2023/11/13 07:57:37;;;;;;;9.87;2.50;;;9.90;99.90;;;;;;5015053;28;20676;-38
2023/11/13 08:00:09;;;;;;;6.07;2.37;;;9.90;99.90;;;;;;5013534;28;20848;-36
2023/11/13 08:02:37;;;;;;;6.50;2.23;;;9.90;99.90;;;;;;5013751;28;20434;-40
2023/11/13 08:05:03;;;;;;;5.30;2.23;;;9.80;99.90;;;;;;5012331;28;20539;-36
2023/11/13 08:07:29;;;;;;;4.60;2.03;;;9.70;99.90;;;;;;5015220;28;20441;-38
2023/11/13 08:09:55;;;;;;;5.33;2.10;;;9.80;99.90;;;;;;5014301;28;20476;-37
2023/11/13 08:12:20;;;;;;;2.90;1.80;;;9.70;99.90;;;;;;5015312;28;20780;-39
2023/11/13 08:14:49;;;;;;;8.03;1.80;;;9.70;1.00;;;;;;5015320;28;20187;-38
2023/11/13 08:17:14;;;;;;;2.57;1.50;;;9.60;1.00;;;;;;5014668;28;20294;-39
2023/11/13 08:19:41;;;;;;;6.57;2.10;;;9.60;1.00;;;;;;5014769;28;20533;-39
2023/11/13 08:22:07;;;;;;;5.50;2.77;;;9.70;1.00;;;;;;5016138;28;20583;-40
2023/11/13 08:24:33;;;;;;;8.50;2.27;;;9.70;1.00;;;;;;5014937;28;20509;-38
2023/11/13 08:27:01;;;;;;;6.20;2.43;;;9.60;1.00;;;;;;5015680;28;20340;-40
2023/11/13 08:29:27;;;;;;;4.57;2.17;;;9.60;1.00;;;;;;5015168;28;20435;-38
2023/11/13 08:31:53;;;;;;;7.13;1.87;;;9.70;1.00;;;;;;5015197;28;20488;-42
2023/11/13 08:34:19;;;;;;;3.63;1.80;;;9.70;1.00;;;;;;5016188;28;20433;-39
2023/11/13 08:36:45;;;;;;;6.13;1.70;;;9.70;1.00;;;;;;5015254;28;20349;-39
2023/11/13 08:39:10;;;;;;;4.93;1.63;;;9.80;1.00;;;;;;5013949;28;20521;-39
2023/11/13 08:41:36;;;;;;;4.37;1.70;;;9.70;1.00;;;;;;5014608;28;20206;-39
2023/11/13 08:44:03;;;;;;;4.17;1.80;;;9.80;1.00;;;;;;5015941;28;20763;-40
2023/11/13 08:46:30;;;;;;;3.97;1.70;;;9.80;1.00;;;;;;5031173;28;20654;-41
2023/11/13 08:48:56;;;;;;;8.10;2.30;;;9.80;1.00;;;;;;5013551;28;20908;-41
2023/11/13 08:51:27;;;;;;;3.40;1.57;;;9.90;1.00;;;;;;5015255;28;20587;-42
2023/11/13 08:53:59;;;;;;;5.80;2.00;;;9.90;1.00;;;;;;5014544;28;21007;-40
2023/11/13 08:56:26;;;;;;;6.70;2.13;;;9.90;1.00;;;;;;5014173;28;20425;-40
2023/11/13 08:58:54;;;;;;;3.90;1.70;;;10.00;1.00;;;;;;5015446;28;20863;-42
2023/11/13 09:01:25;;;;;;;6.73;1.93;;;10.00;1.00;;;;;;5015211;28;20422;-41
2023/11/13 09:03:52;;;;;;;3.10;1.70;;;10.00;1.00;;;;;;5014284;28;20436;-42
2023/11/13 09:06:18;;;;;;;3.67;2.03;;;10.10;1.00;;;;;;5013809;28;20707;-39
2023/11/13 09:08:43;;;;;;;5.47;2.47;;;10.10;1.00;;;;;;5013279;28;20445;-41
2023/11/13 09:11:11;;;;;;;2.87;1.73;;;10.20;1.00;;;;;;5013690;28;20187;-39
2023/11/13 09:13:38;;;;;;;9.77;2.63;;;10.20;1.00;;;;;;5030049;28;20274;-38
2023/11/13 09:16:05;;;;;;;7.23;2.43;;;10.30;1.00;;;;;;5015290;28;20561;-40
2023/11/13 09:18:32;;;;;;;4.93;2.40;;;10.30;1.00;;;;;;5029454;28;20187;-40
2023/11/13 09:20:58;;;;;;;3.93;1.67;;;10.30;1.00;;;;;;5034838;28;20414;-41
2023/11/13 09:23:23;;;;;;;7.50;3.53;;;10.40;1.00;;;;;;5029344;28;20434;-42
2023/11/13 09:25:49;;;;;;;3.37;1.70;;;10.50;1.00;;;;;;5018353;28;20237;-40
2023/11/13 09:28:16;;;;;;;5.80;2.03;;;10.60;1.00;;;;;;5016275;28;20204;-37
2023/11/13 09:30:41;;;;;;;4.13;1.90;;;10.60;1.00;;;;;;5017251;28;20307;-36
2023/11/13 09:33:10;;;;;;;5.07;1.83;;;10.60;1.00;;;;;;5016348;28;20820;-37
2023/11/13 09:35:36;;;;;;;5.73;1.70;;;10.70;1.00;;;;;;5017850;28;20194;-38
2023/11/13 09:38:01;;;;;;;6.10;2.23;;;10.70;1.00;;;;;;5017578;28;20426;-38
2023/11/13 09:40:34;;;;;;;3.20;2.07;;;10.70;1.00;;;;;;5017373;28;20183;-39
2023/11/13 09:43:15;;;;;;;5.03;1.90;;;10.90;1.00;;;;;;5016333;28;20434;-37
2023/11/13 09:45:45;;;;;;;6.90;2.20;;;11.00;1.00;;;;;;5011970;28;20535;-38
2023/11/13 09:48:15;;;;;;;4.33;2.30;;;11.20;1.00;;;;;;5015188;28;20419;-38
2023/11/13 09:50:41;;;;;;;5.17;2.17;;;11.30;1.00;;;;;;5017343;28;20890;-38
2023/11/13 09:53:08;;;;;;;4.30;2.27;;;11.40;1.00;;;;;;5015773;28;20430;-37
2023/11/13 09:55:38;;;;;;;2.57;1.70;;;11.40;1.00;;;;;;5017879;28;20190;-38
2023/11/13 09:58:04;;;;;;;3.53;1.90;;;11.50;1.00;;;;;;5017734;28;20754;-37
2023/11/13 10:00:32;;;;;;;3.73;2.17;;;11.60;1.00;;;;;;5015351;28;20418;-39
2023/11/13 10:02:58;;;;;;;5.80;1.97;;;11.60;1.00;;;;;;5015875;28;20386;-38
2023/11/13 10:05:30;;;;;;;4.80;1.80;;;11.70;1.00;;;;;;5013738;28;20516;-38
2023/11/13 10:07:56;;;;;;;6.37;2.07;;;11.70;1.00;;;;;;5015119;28;20188;-38
2023/11/13 10:10:29;;;;;;;7.43;2.40;;;11.70;1.00;;;;;;5016447;28;20692;-39
2023/11/13 10:12:56;;;;;;;2.63;1.80;;;11.70;1.00;;;;;;5016758;28;20410;-38
2023/11/13 10:15:27;;;;;;;4.10;1.60;;;11.70;1.00;;;;;;5016320;28;20422;-38
2023/11/13 10:17:54;;;;;;;4.80;2.40;;;11.70;1.00;;;;;;5016179;28;20516;-39
2023/11/13 10:20:20;;;;;;;5.43;3.73;;;11.70;1.00;;;;;;5017571;28;20525;-38
2023/11/13 10:23:16;;;;;;;6.00;2.30;;;11.90;1.00;;;;;;5017112;28;20429;-37
2023/11/13 10:25:45;;;;;;;3.10;1.83;;;11.90;1.00;;;;;;5008961;28;20513;-38
2023/11/13 10:28:13;;;;;;;4.73;2.13;;;12.00;1.00;;;;;;4998351;28;20441;-38
2023/11/13 10:31:16;;;;;;;3.30;2.13;;;12.00;1.00;;;;;;5016215;28;20430;-39
2023/11/13 10:33:59;;;;;;;5.20;2.20;;;12.00;1.00;;;;;;5017415;28;20454;-39
2023/11/13 10:36:24;;;;;;;7.03;2.07;;;12.20;1.00;;;;;;5015794;28;20430;-38
2023/11/13 10:38:52;;;;;;;4.93;2.50;;;12.20;1.00;;;;;;5016354;28;20445;-38
2023/11/13 10:41:22;;;;;;;5.87;2.07;;;12.20;1.00;;;;;;5014974;28;20191;-38
2023/11/13 10:43:48;;;;;;;5.73;2.57;;;12.30;1.00;;;;;;5013286;28;20445;-39
2023/11/13 10:46:30;;;;;;;3.40;2.20;;;12.30;1.00;;;;;;5014804;28;20456;-39
2023/11/13 10:48:57;;;;;;;12.80;3.97;;;12.40;1.00;;;;;;5016789;28;20282;-39
2023/11/13 10:51:25;;;;;;;4.73;2.10;;;12.40;1.00;;;;;;5016444;28;20454;-37
2023/11/13 10:53:53;;;;;;;5.07;2.43;;;12.50;1.00;;;;;;5015894;28;20449;-38
2023/11/13 10:56:19;;;;;;;5.20;2.03;;;12.50;1.00;;;;;;5015928;28;20434;-39
2023/11/13 10:58:44;;;;;;;5.00;2.17;;;12.60;1.00;;;;;;5016780;28;20716;-38
2023/11/13 11:01:13;;;;;;;6.67;2.13;;;12.60;1.00;;;;;;5016680;28;20573;-38
2023/11/13 11:03:43;;;;;;;6.63;2.20;;;12.60;1.00;;;;;;5017147;28;20183;-41
2023/11/13 11:06:14;;;;;;;5.10;2.37;;;12.50;1.00;;;;;;5016799;28;20567;-38
2023/11/13 11:08:44;;;;;;;4.53;2.80;;;12.50;1.00;;;;;;5017842;28;20433;-38
2023/11/13 11:11:12;;;;;;;8.17;3.70;;;12.50;1.00;;;;;;5015381;28;20537;-40
2023/11/13 11:14:05;;;;;;;3.60;2.87;;;12.40;1.00;;;;;;5014368;28;20496;-39
2023/11/13 11:16:35;;;;;;;5.53;2.43;;;12.40;1.00;;;;;;5013937;28;20839;-39
2023/11/13 11:19:25;;;;;;;5.77;2.70;;;12.40;1.00;;;;;;5011978;28;20869;-41
2023/11/13 11:22:00;;;;;;;3.30;2.13;;;12.40;1.00;;;;;;5013788;28;20434;-41
2023/11/13 11:24:57;;;;;;;5.17;2.40;;;12.40;1.00;;;;;;5014031;28;20618;-41
2023/11/13 11:27:40;;;;;;;6.53;4.00;;;12.40;1.00;;;;;;5013069;28;20429;-38
2023/11/13 11:30:18;;;;;;;4.50;2.30;;;12.50;1.00;;;;;;5014981;28;20437;-40
2023/11/13 11:33:00;;;;;;;6.27;2.47;;;12.50;1.00;;;;;;5029726;28;20634;-41
2023/11/13 11:35:29;;;;;;;5.13;2.47;;;12.60;1.00;;;;;;5033672;28;20441;-40
2023/11/13 11:38:26;;;;;;;8.77;3.07;;;12.60;1.00;;;;;;5033803;28;20441;-40
2023/11/13 11:40:59;;;;;;;5.47;2.57;;;12.70;1.00;;;;;;5032998;28;20483;-39
2023/11/13 11:43:35;;;;;;;7.10;3.10;;;12.70;1.00;;;;;;5033941;28;20414;-41
2023/11/13 11:46:03;;;;;;;4.40;3.10;;;12.70;1.00;;;;;;5017914;28;20507;-39
2023/11/13 11:48:30;;;;;;;5.03;2.73;;;12.70;1.00;;;;;;5017389;28;20472;-41
2023/11/13 11:51:18;;;;;;;6.30;2.90;;;12.70;1.00;;;;;;5036530;28;20428;-40
2023/11/13 11:53:57;;;;;;;7.37;3.10;;;12.70;1.00;;;;;;5036371;28;20433;-40
2023/11/13 11:56:23;;;;;;;5.50;2.73;;;12.70;1.00;;;;;;5035199;28;20437;-41
2023/11/13 11:58:49;;;;;;;7.13;2.90;;;12.70;1.00;;;;;;5034976;28;20464;-39
2023/11/13 12:01:16;;;;;;;5.60;3.27;;;12.80;1.00;;;;;;5035459;28;20508;-39
2023/11/13 12:03:42;;;;;;;8.40;2.57;;;12.80;1.00;;;;;;5016687;28;20186;-41
2023/11/13 12:06:08;;;;;;;5.20;2.47;;;12.80;1.00;;;;;;5033557;28;20480;-39
2023/11/13 12:08:36;;;;;;;8.30;3.10;;;12.80;1.00;;;;;;5018430;28;20442;-39
2023/11/13 12:11:02;;;;;;;6.30;3.43;;;12.90;1.00;;;;;;4981223;28;20851;-39
2023/11/13 12:13:28;;;;;;;7.90;3.37;;;12.80;1.00;;;;;;4996013;28;20788;-39
2023/11/13 12:15:58;;;;;;;5.47;2.80;;;12.90;1.00;;;;;;5014315;28;20418;-40
2023/11/13 12:18:26;;;;;;;4.47;2.63;;;13.00;1.00;;;;;;5013730;28;20289;-41
2023/11/13 12:20:52;;;;;;;5.67;2.50;;;13.00;1.00;;;;;;5013504;28;20422;-38
2023/11/13 12:23:18;;;;;;;7.17;3.20;;;12.90;1.00;;;;;;5014087;28;20438;-49
2023/11/13 12:25:44;;;;;;;4.77;3.10;;;12.80;1.00;;;;;;5013312;28;20556;-39
2023/11/13 12:28:11;;;;;;;8.63;2.60;;;12.80;1.00;;;;;;4994135;28;20361;-37
2023/11/13 12:30:38;;;;;;;8.23;3.13;;;12.80;1.00;;;;;;5011275;28;20488;-42
2023/11/13 12:33:03;;;;;;;6.17;2.50;;;12.80;1.00;;;;;;5008042;28;20732;-43
2023/11/13 12:35:33;;;;;;;4.73;2.90;;;13.10;1.00;;;;;;5009775;28;20430;-40
2023/11/13 12:37:59;;;;;;;3.47;2.43;;;13.40;1.00;;;;;;5009609;28;20245;-41
2023/11/13 12:40:25;;;;;;;5.07;2.33;;;13.40;1.00;;;;;;5010808;28;20417;-42
2023/11/13 12:42:51;;;;;;;3.97;1.93;;;13.50;1.00;;;;;;5024007;28;20240;-40
2023/11/13 12:45:18;;;;;;;3.10;2.60;;;13.40;1.00;;;;;;5008781;28;20721;-41
2023/11/13 12:47:48;;;;;;;4.00;2.00;;;13.40;1.00;;;;;;5010996;28;20437;-42
2023/11/13 12:50:20;;;;;;;7.50;3.80;;;13.40;1.00;;;;;;5012928;28;20437;-39
2023/11/13 12:52:53;;;;;;;4.90;2.40;;;13.60;1.00;;;;;;5012612;28;20473;-39
2023/11/13 12:55:19;;;;;;;5.63;2.30;;;13.40;1.00;;;;;;5013181;28;20524;-39
2023/11/13 12:57:49;;;;;;;3.90;2.07;;;13.30;1.00;;;;;;5014319;28;20430;-40
2023/11/13 13:00:16;;;;;;;3.73;2.17;;;13.30;1.00;;;;;;5016376;28;20430;-39
2023/11/13 13:02:47;;;;;;;4.77;2.00;;;13.20;1.00;;;;;;5016636;28;20466;-40